sensor_id;sensor_type;location;lat;lon;timestamp;pressure;altitude;pressure_sealevel;temperature;humidity
54854;BME280;40747;49.480;8.658;2023-07-20T00:01:04;100097.25;;;21.19;58.97
54854;BME280;40747;49.480;8.658;2023-07-20T00:03:29;100106.75;;;21.23;58.70
54854;BME280;40747;49.480;8.658;2023-07-20T00:05:54;100106.75;;;21.23;58.41
54854;BME280;40747;49.480;8.658;2023-07-20T00:08:20;100108.06;;;21.06;58.88
54854;BME280;40747;49.480;8.658;2023-07-20T00:10:45;100105.41;;;21.17;58.49
54854;BME280;40747;49.480;8.658;2023-07-20T00:13:11;100107.47;;;20.91;59.06
54854;BME280;40747;49.480;8.658;2023-07-20T00:15:36;100106.13;;;21.08;58.93
54854;BME280;40747;49.480;8.658;2023-07-20T00:18:03;100103.59;;;21.18;58.84
54854;BME280;40747;49.480;8.658;2023-07-20T00:20:28;100110.75;;;21.17;58.53
54854;BME280;40747;49.480;8.658;2023-07-20T00:22:54;100109.78;;;21.18;58.90
54854;BME280;40747;49.480;8.658;2023-07-20T00:25:20;100113.53;;;20.93;59.27
54854;BME280;40747;49.480;8.658;2023-07-20T00:27:45;100114.03;;;21.09;59.48
54854;BME280;40747;49.480;8.658;2023-07-20T00:30:11;100113.81;;;21.13;59.08
54854;BME280;40747;49.480;8.658;2023-07-20T00:32:36;100105.41;;;21.17;59.13
54854;BME280;40747;49.480;8.658;2023-07-20T00:35:02;100119.06;;;21.25;58.98
54854;BME280;40747;49.480;8.658;2023-07-20T00:37:27;100109.78;;;21.18;58.94
54854;BME280;40747;49.480;8.658;2023-07-20T00:39:53;100110.50;;;21.32;58.83
54854;BME280;40747;49.480;8.658;2023-07-20T00:42:18;100121.47;;;21.28;58.84
54854;BME280;40747;49.480;8.658;2023-07-20T00:44:43;100116.25;;;21.16;59.06
54854;BME280;40747;49.480;8.658;2023-07-20T00:47:09;100117.81;;;21.07;59.07
54854;BME280;40747;49.480;8.658;2023-07-20T00:49:34;100119.03;;;21.14;59.26
54854;BME280;40747;49.480;8.658;2023-07-20T00:52:01;100121.09;;;21.10;59.22
54854;BME280;40747;49.480;8.658;2023-07-20T00:54:27;100107.22;;;20.94;59.32
54854;BME280;40747;49.480;8.658;2023-07-20T00:56:53;100129.63;;;21.04;59.41
54854;BME280;40747;49.480;8.658;2023-07-20T00:59:19;100124.97;;;20.95;59.53
54854;BME280;40747;49.480;8.658;2023-07-20T01:01:45;100126.91;;;20.93;59.85
54854;BME280;40747;49.480;8.658;2023-07-20T01:04:11;100128.72;;;20.81;59.91
54854;BME280;40747;49.480;8.658;2023-07-20T01:06:45;100136.41;;;20.86;60.01
54854;BME280;40747;49.480;8.658;2023-07-20T01:09:19;100129.84;;;20.90;59.85
54854;BME280;40747;49.480;8.658;2023-07-20T01:12:13;100125.59;;;20.99;59.50
54854;BME280;40747;49.480;8.658;2023-07-20T01:14:41;100131.06;;;20.97;59.84
54854;BME280;40747;49.480;8.658;2023-07-20T01:17:07;100124.47;;;20.78;59.93
54854;BME280;40747;49.480;8.658;2023-07-20T01:19:32;100124.34;;;20.91;60.00
54854;BME280;40747;49.480;8.658;2023-07-20T01:22:38;100116.81;;;20.97;60.01
54854;BME280;40747;49.480;8.658;2023-07-20T01:25:33;100129.63;;;21.04;61.70
54854;BME280;40747;49.480;8.658;2023-07-20T01:33:33;100091.88;;;20.85;61.13
54854;BME280;40747;49.480;8.658;2023-07-20T01:36:00;100122.53;;;21.03;61.18
54854;BME280;40747;49.480;8.658;2023-07-20T01:38:26;100119.38;;;20.98;61.78
54854;BME280;40747;49.480;8.658;2023-07-20T01:40:52;100126.53;;;20.86;61.23
54854;BME280;40747;49.480;8.658;2023-07-20T01:43:18;100121.44;;;20.83;60.79
54854;BME280;40747;49.480;8.658;2023-07-20T01:45:44;100109.47;;;20.76;61.99
54854;BME280;40747;49.480;8.658;2023-07-20T01:48:09;100122.25;;;20.72;63.07
54854;BME280;40747;49.480;8.658;2023-07-20T01:50:35;100113.94;;;20.64;61.70
54854;BME280;40747;49.480;8.658;2023-07-20T01:53:01;100125.59;;;20.63;61.71
54854;BME280;40747;49.480;8.658;2023-07-20T01:55:26;100126.75;;;20.48;61.75
54854;BME280;40747;49.480;8.658;2023-07-20T01:57:52;100121.31;;;20.25;61.98
54854;BME280;40747;49.480;8.658;2023-07-20T02:00:18;100124.75;;;20.27;62.50
54854;BME280;40747;49.480;8.658;2023-07-20T02:02:46;100115.22;;;20.23;62.65
54854;BME280;40747;49.480;8.658;2023-07-20T02:05:11;100129.91;;;20.17;63.01
54854;BME280;40747;49.480;8.658;2023-07-20T02:07:36;100126.31;;;20.05;63.07
54854;BME280;40747;49.480;8.658;2023-07-20T02:10:02;100123.69;;;20.17;64.15
54854;BME280;40747;49.480;8.658;2023-07-20T02:12:27;100129.16;;;20.15;64.10
54854;BME280;40747;49.480;8.658;2023-07-20T02:14:52;100125.00;;;20.11;64.19
54854;BME280;40747;49.480;8.658;2023-07-20T02:17:19;100131.88;;;20.02;64.25
54854;BME280;40747;49.480;8.658;2023-07-20T02:19:45;100125.38;;;19.93;65.33
54854;BME280;40747;49.480;8.658;2023-07-20T02:22:11;100119.53;;;19.88;65.61
54854;BME280;40747;49.480;8.658;2023-07-20T02:24:41;100122.44;;;19.85;65.00
54854;BME280;40747;49.480;8.658;2023-07-20T02:27:08;100135.38;;;19.78;65.94
54854;BME280;40747;49.480;8.658;2023-07-20T02:29:33;100131.31;;;19.73;66.29
54854;BME280;40747;49.480;8.658;2023-07-20T02:31:59;100132.72;;;19.65;67.00
54854;BME280;40747;49.480;8.658;2023-07-20T02:34:24;100133.03;;;19.61;66.61
54854;BME280;40747;49.480;8.658;2023-07-20T02:36:49;100144.41;;;19.52;67.31
54854;BME280;40747;49.480;8.658;2023-07-20T02:39:15;100137.00;;;19.42;66.44
54854;BME280;40747;49.480;8.658;2023-07-20T02:41:40;100136.28;;;19.40;66.45
54854;BME280;40747;49.480;8.658;2023-07-20T02:44:06;100130.94;;;19.40;66.68
54854;BME280;40747;49.480;8.658;2023-07-20T02:46:31;100128.69;;;19.34;66.60
54854;BME280;40747;49.480;8.658;2023-07-20T02:48:57;100140.66;;;19.41;67.14
54854;BME280;40747;49.480;8.658;2023-07-20T02:51:22;100138.00;;;19.41;67.26
54854;BME280;40747;49.480;8.658;2023-07-20T02:53:47;100132.75;;;19.40;67.25
54854;BME280;40747;49.480;8.658;2023-07-20T02:56:12;100142.38;;;19.29;66.55
54854;BME280;40747;49.480;8.658;2023-07-20T02:58:41;100131.81;;;19.28;67.38
54854;BME280;40747;49.480;8.658;2023-07-20T03:01:08;100128.59;;;19.23;67.39
54854;BME280;40747;49.480;8.658;2023-07-20T03:03:35;100133.41;;;19.18;68.54
54854;BME280;40747;49.480;8.658;2023-07-20T03:06:06;100136.50;;;18.98;68.34
54854;BME280;40747;49.480;8.658;2023-07-20T03:08:33;100142.47;;;19.02;69.19
54854;BME280;40747;49.480;8.658;2023-07-20T03:10:59;100149.53;;;19.03;68.54
54854;BME280;40747;49.480;8.658;2023-07-20T03:13:24;100144.16;;;18.77;68.56
54854;BME280;40747;49.480;8.658;2023-07-20T03:15:49;100132.72;;;18.75;68.96
54854;BME280;40747;49.480;8.658;2023-07-20T03:18:14;100139.53;;;18.79;69.05
54854;BME280;40747;49.480;8.658;2023-07-20T03:20:40;100143.50;;;18.87;70.14
54854;BME280;40747;49.480;8.658;2023-07-20T03:23:05;100141.66;;;18.74;70.18
54854;BME280;40747;49.480;8.658;2023-07-20T03:25:30;100145.50;;;18.70;69.69
54854;BME280;40747;49.480;8.658;2023-07-20T03:27:56;100142.41;;;18.36;69.73
54854;BME280;40747;49.480;8.658;2023-07-20T03:30:21;100143.94;;;18.40;70.03
54854;BME280;40747;49.480;8.658;2023-07-20T03:32:48;100152.13;;;18.37;70.38
54854;BME280;40747;49.480;8.658;2023-07-20T03:35:13;100153.00;;;18.38;70.22
54854;BME280;40747;49.480;8.658;2023-07-20T03:37:40;100148.13;;;18.44;70.09
54854;BME280;40747;49.480;8.658;2023-07-20T03:40:06;100156.84;;;18.46;70.57
54854;BME280;40747;49.480;8.658;2023-07-20T03:42:32;100154.50;;;18.42;70.42
54854;BME280;40747;49.480;8.658;2023-07-20T03:44:57;100152.38;;;18.47;69.93
54854;BME280;40747;49.480;8.658;2023-07-20T03:47:23;100159.78;;;18.29;70.17
54854;BME280;40747;49.480;8.658;2023-07-20T03:49:49;100162.34;;;18.30;70.09
54854;BME280;40747;49.480;8.658;2023-07-20T03:52:14;100162.25;;;18.32;70.18
54854;BME280;40747;49.480;8.658;2023-07-20T03:54:40;100171.81;;;18.22;70.76
54854;BME280;40747;49.480;8.658;2023-07-20T03:57:05;100167.63;;;18.17;71.08
54854;BME280;40747;49.480;8.658;2023-07-20T03:59:30;100167.38;;;18.08;70.97
54854;BME280;40747;49.480;8.658;2023-07-20T04:01:56;100170.16;;;17.92;71.54
54854;BME280;40747;49.480;8.658;2023-07-20T04:04:21;100173.09;;;17.87;71.86
54854;BME280;40747;49.480;8.658;2023-07-20T04:06:46;100178.06;;;17.93;71.86
54854;BME280;40747;49.480;8.658;2023-07-20T04:09:12;100169.66;;;17.85;71.36
54854;BME280;40747;49.480;8.658;2023-07-20T04:11:37;100176.59;;;17.88;71.54
54854;BME280;40747;49.480;8.658;2023-07-20T04:14:03;100175.97;;;17.84;72.04
54854;BME280;40747;49.480;8.658;2023-07-20T04:16:28;100181.47;;;17.81;72.01
54854;BME280;40747;49.480;8.658;2023-07-20T04:18:57;100186.31;;;17.89;71.94
54854;BME280;40747;49.480;8.658;2023-07-20T04:21:23;100181.94;;;17.88;72.26
54854;BME280;40747;49.480;8.658;2023-07-20T04:23:48;100195.19;;;17.89;72.90
54854;BME280;40747;49.480;8.658;2023-07-20T04:26:14;100194.53;;;17.71;72.36
54854;BME280;40747;49.480;8.658;2023-07-20T04:28:40;100196.78;;;17.77;73.08
54854;BME280;40747;49.480;8.658;2023-07-20T04:31:14;100193.00;;;17.81;72.72
54854;BME280;40747;49.480;8.658;2023-07-20T04:33:39;100188.78;;;17.77;72.58
54854;BME280;40747;49.480;8.658;2023-07-20T04:36:05;100196.78;;;17.77;72.67
54854;BME280;40747;49.480;8.658;2023-07-20T04:38:30;100196.59;;;17.80;72.91
54854;BME280;40747;49.480;8.658;2023-07-20T04:40:56;100197.72;;;17.91;72.62
54854;BME280;40747;49.480;8.658;2023-07-20T04:43:21;100204.97;;;17.89;72.86
54854;BME280;40747;49.480;8.658;2023-07-20T04:45:46;100205.56;;;17.94;72.72
54854;BME280;40747;49.480;8.658;2023-07-20T04:48:14;100204.84;;;17.90;73.20
54854;BME280;40747;49.480;8.658;2023-07-20T04:50:40;100199.84;;;18.00;72.81
54854;BME280;40747;49.480;8.658;2023-07-20T04:53:06;100203.75;;;17.94;72.65
54854;BME280;40747;49.480;8.658;2023-07-20T04:55:31;100206.19;;;18.12;72.50
54854;BME280;40747;49.480;8.658;2023-07-20T04:57:59;100194.63;;;18.26;72.91
54854;BME280;40747;49.480;8.658;2023-07-20T05:00:25;100193.13;;;18.22;72.01
54854;BME280;40747;49.480;8.658;2023-07-20T05:02:50;100190.34;;;18.23;72.26
54854;BME280;40747;49.480;8.658;2023-07-20T05:05:15;100185.91;;;18.09;72.73
54854;BME280;40747;49.480;8.658;2023-07-20T05:07:41;100187.63;;;18.10;72.54
54854;BME280;40747;49.480;8.658;2023-07-20T05:10:06;100189.13;;;18.14;72.66
54854;BME280;40747;49.480;8.658;2023-07-20T05:12:32;100192.28;;;18.21;72.77
54854;BME280;40747;49.480;8.658;2023-07-20T05:14:57;100192.13;;;18.37;72.66
54854;BME280;40747;49.480;8.658;2023-07-20T05:17:22;100180.84;;;18.46;72.52
54854;BME280;40747;49.480;8.658;2023-07-20T05:19:48;100190.59;;;18.60;72.28
54854;BME280;40747;49.480;8.658;2023-07-20T05:22:13;100181.88;;;18.58;71.63
54854;BME280;40747;49.480;8.658;2023-07-20T05:24:42;100177.09;;;18.63;71.78
54854;BME280;40747;49.480;8.658;2023-07-20T05:27:08;100180.94;;;18.72;71.36
54854;BME280;40747;49.480;8.658;2023-07-20T05:29:33;100185.78;;;18.80;71.13
54854;BME280;40747;49.480;8.658;2023-07-20T05:31:58;100189.16;;;18.82;70.74
54854;BME280;40747;49.480;8.658;2023-07-20T05:34:24;100190.59;;;18.88;71.92
54854;BME280;40747;49.480;8.658;2023-07-20T05:36:49;100200.44;;;19.00;72.31
54854;BME280;40747;49.480;8.658;2023-07-20T05:39:16;100187.75;;;19.04;70.32
54854;BME280;40747;49.480;8.658;2023-07-20T05:41:42;100192.78;;;19.08;71.20
54854;BME280;40747;49.480;8.658;2023-07-20T05:44:07;100185.97;;;19.17;70.40
54854;BME280;40747;49.480;8.658;2023-07-20T05:46:32;100184.25;;;19.29;70.35
54854;BME280;40747;49.480;8.658;2023-07-20T05:48:58;100194.94;;;19.29;70.14
54854;BME280;40747;49.480;8.658;2023-07-20T05:51:23;100192.91;;;19.32;69.49
54854;BME280;40747;49.480;8.658;2023-07-20T05:53:48;100192.03;;;19.19;69.52
54854;BME280;40747;49.480;8.658;2023-07-20T05:56:13;100200.56;;;19.24;69.19
54854;BME280;40747;49.480;8.658;2023-07-20T05:58:39;100203.25;;;19.37;68.48
54854;BME280;40747;49.480;8.658;2023-07-20T06:01:04;100201.88;;;19.44;68.95
54854;BME280;40747;49.480;8.658;2023-07-20T06:03:31;100195.44;;;19.60;69.78
54854;BME280;40747;49.480;8.658;2023-07-20T06:06:02;100198.34;;;19.70;70.47
54854;BME280;40747;49.480;8.658;2023-07-20T06:08:30;100204.94;;;19.64;70.04
54854;BME280;40747;49.480;8.658;2023-07-20T06:10:56;100197.59;;;19.55;69.27
54854;BME280;40747;49.480;8.658;2023-07-20T06:13:22;100202.50;;;19.61;69.74
54854;BME280;40747;49.480;8.658;2023-07-20T06:15:48;100195.97;;;19.78;70.44
54854;BME280;40747;49.480;8.658;2023-07-20T06:18:13;100197.78;;;19.77;69.09
54854;BME280;40747;49.480;8.658;2023-07-20T06:20:39;100194.88;;;19.80;68.79
54854;BME280;40747;49.480;8.658;2023-07-20T06:23:04;100203.69;;;19.83;67.72
54854;BME280;40747;49.480;8.658;2023-07-20T06:25:30;100205.56;;;19.80;68.81
54854;BME280;40747;49.480;8.658;2023-07-20T06:27:55;100199.81;;;19.87;67.71
54854;BME280;40747;49.480;8.658;2023-07-20T06:30:21;100201.94;;;19.81;68.12
54854;BME280;40747;49.480;8.658;2023-07-20T06:32:46;100201.00;;;19.95;69.82
54854;BME280;40747;49.480;8.658;2023-07-20T06:35:12;100202.66;;;20.09;67.66
54854;BME280;40747;49.480;8.658;2023-07-20T06:37:37;100196.44;;;20.09;67.48
54854;BME280;40747;49.480;8.658;2023-07-20T06:40:03;100203.47;;;20.23;68.23
54854;BME280;40747;49.480;8.658;2023-07-20T06:42:29;100207.44;;;20.17;66.99
54854;BME280;40747;49.480;8.658;2023-07-20T06:44:55;100199.63;;;20.14;66.97
54854;BME280;40747;49.480;8.658;2023-07-20T06:47:20;100205.00;;;20.38;66.73
54854;BME280;40747;49.480;8.658;2023-07-20T06:49:45;100200.34;;;20.53;66.94
54854;BME280;40747;49.480;8.658;2023-07-20T06:52:10;100201.66;;;20.48;66.10
54854;BME280;40747;49.480;8.658;2023-07-20T06:54:36;100210.94;;;20.55;65.68
54854;BME280;40747;49.480;8.658;2023-07-20T06:57:01;100208.72;;;20.73;65.38
54854;BME280;40747;49.480;8.658;2023-07-20T06:59:27;100201.31;;;20.76;64.81
54854;BME280;40747;49.480;8.658;2023-07-20T07:01:52;100205.31;;;20.95;64.52
54854;BME280;40747;49.480;8.658;2023-07-20T07:04:17;100199.25;;;21.16;64.13
54854;BME280;40747;49.480;8.658;2023-07-20T07:06:43;100199.41;;;21.25;63.39
54854;BME280;40747;49.480;8.658;2023-07-20T07:09:09;100200.50;;;21.34;62.39
54854;BME280;40747;49.480;8.658;2023-07-20T07:11:34;100201.00;;;21.39;62.35
54854;BME280;40747;49.480;8.658;2023-07-20T07:14:00;100203.97;;;21.59;62.05
54854;BME280;40747;49.480;8.658;2023-07-20T07:16:25;100191.44;;;21.71;62.60
54854;BME280;40747;49.480;8.658;2023-07-20T07:18:51;100198.50;;;21.72;63.34
54854;BME280;40747;49.480;8.658;2023-07-20T07:21:16;100198.38;;;21.73;62.93
54854;BME280;40747;49.480;8.658;2023-07-20T07:23:42;100195.81;;;21.83;62.98
54854;BME280;40747;49.480;8.658;2023-07-20T07:26:08;100200.06;;;22.08;61.24
54854;BME280;40747;49.480;8.658;2023-07-20T07:28:33;100195.38;;;22.22;61.87
54854;BME280;40747;49.480;8.658;2023-07-20T07:30:59;100198.72;;;21.91;62.14
54854;BME280;40747;49.480;8.658;2023-07-20T07:33:24;100194.19;;;22.03;62.32
54854;BME280;40747;49.480;8.658;2023-07-20T07:35:50;100187.84;;;22.16;61.38
54854;BME280;40747;49.480;8.658;2023-07-20T07:38:16;100194.22;;;22.58;61.93
54854;BME280;40747;49.480;8.658;2023-07-20T07:40:42;100188.03;;;23.00;60.51
54854;BME280;40747;49.480;8.658;2023-07-20T07:43:07;100173.03;;;22.77;60.16
54854;BME280;40747;49.480;8.658;2023-07-20T07:45:35;100182.09;;;23.18;60.13
54854;BME280;40747;49.480;8.658;2023-07-20T07:48:02;100188.91;;;23.22;59.51
54854;BME280;40747;49.480;8.658;2023-07-20T07:50:27;100175.63;;;23.51;57.73
54854;BME280;40747;49.480;8.658;2023-07-20T07:52:53;100172.34;;;23.05;58.17
54854;BME280;40747;49.480;8.658;2023-07-20T07:55:19;100174.41;;;23.65;58.43
54854;BME280;40747;49.480;8.658;2023-07-20T07:57:44;100174.53;;;23.95;57.25
54854;BME280;40747;49.480;8.658;2023-07-20T08:00:10;100178.88;;;23.55;56.64
54854;BME280;40747;49.480;8.658;2023-07-20T08:02:39;100190.31;;;23.26;54.30
54854;BME280;40747;49.480;8.658;2023-07-20T08:05:05;100188.94;;;23.11;54.73
54854;BME280;40747;49.480;8.658;2023-07-20T08:07:30;100189.13;;;22.77;55.45
54854;BME280;40747;49.480;8.658;2023-07-20T08:09:55;100184.44;;;22.57;56.65
54854;BME280;40747;49.480;8.658;2023-07-20T08:12:21;100192.34;;;22.38;57.79
54854;BME280;40747;49.480;8.658;2023-07-20T08:14:46;100189.50;;;22.51;58.25
54854;BME280;40747;49.480;8.658;2023-07-20T08:17:11;100194.03;;;22.39;57.84
54854;BME280;40747;49.480;8.658;2023-07-20T08:19:37;100193.84;;;22.84;56.24
54854;BME280;40747;49.480;8.658;2023-07-20T08:22:06;100196.03;;;22.90;55.90
54854;BME280;40747;49.480;8.658;2023-07-20T08:24:31;100194.41;;;22.99;56.36
54854;BME280;40747;49.480;8.658;2023-07-20T08:26:57;100197.88;;;23.32;55.69
54854;BME280;40747;49.480;8.658;2023-07-20T08:29:23;100189.03;;;23.20;56.59
54854;BME280;40747;49.480;8.658;2023-07-20T08:31:49;100190.44;;;23.15;55.41
54854;BME280;40747;49.480;8.658;2023-07-20T08:34:14;100195.44;;;22.54;56.64
54854;BME280;40747;49.480;8.658;2023-07-20T08:36:40;100197.09;;;23.20;55.97
54854;BME280;40747;49.480;8.658;2023-07-20T08:39:05;100186.31;;;23.72;54.37
54854;BME280;40747;49.480;8.658;2023-07-20T08:41:30;100192.59;;;23.83;53.66
54854;BME280;40747;49.480;8.658;2023-07-20T08:43:56;100194.88;;;24.48;53.28
54854;BME280;40747;49.480;8.658;2023-07-20T08:46:24;100198.97;;;24.32;52.61
54854;BME280;40747;49.480;8.658;2023-07-20T08:48:50;100203.13;;;23.96;52.75
54854;BME280;40747;49.480;8.658;2023-07-20T08:51:16;100197.25;;;24.41;53.59
54854;BME280;40747;49.480;8.658;2023-07-20T08:53:45;100199.72;;;24.83;51.49
54854;BME280;40747;49.480;8.658;2023-07-20T08:56:11;100192.25;;;25.34;50.64
54854;BME280;40747;49.480;8.658;2023-07-20T08:58:39;100184.59;;;25.40;50.08
54854;BME280;40747;49.480;8.658;2023-07-20T09:01:05;100188.56;;;25.83;50.73
54854;BME280;40747;49.480;8.658;2023-07-20T09:03:31;100188.78;;;26.45;50.67
54854;BME280;40747;49.480;8.658;2023-07-20T09:05:58;100184.25;;;25.62;49.21
54854;BME280;40747;49.480;8.658;2023-07-20T09:08:23;100182.59;;;25.51;50.73
54854;BME280;40747;49.480;8.658;2023-07-20T09:10:48;100157.44;;;26.16;49.33
54854;BME280;40747;49.480;8.658;2023-07-20T09:13:15;100171.94;;;26.88;48.84
54854;BME280;40747;49.480;8.658;2023-07-20T09:15:46;100176.69;;;27.12;46.77
54854;BME280;40747;49.480;8.658;2023-07-20T09:18:11;100175.03;;;26.57;46.90
54854;BME280;40747;49.480;8.658;2023-07-20T09:20:37;100172.84;;;25.41;47.71
54854;BME280;40747;49.480;8.658;2023-07-20T09:23:06;100165.50;;;25.71;48.24
54854;BME280;40747;49.480;8.658;2023-07-20T09:25:32;100176.41;;;25.69;49.05
54854;BME280;40747;49.480;8.658;2023-07-20T09:28:02;100169.59;;;25.75;49.39
54854;BME280;40747;49.480;8.658;2023-07-20T09:30:27;100175.50;;;26.34;48.37
54854;BME280;40747;49.480;8.658;2023-07-20T09:32:52;100172.00;;;26.06;48.07
54854;BME280;40747;49.480;8.658;2023-07-20T09:35:20;100179.28;;;26.23;47.78
54854;BME280;40747;49.480;8.658;2023-07-20T09:38:05;100181.22;;;25.75;49.16
54854;BME280;40747;49.480;8.658;2023-07-20T09:40:37;100179.34;;;25.48;50.25
54854;BME280;40747;49.480;8.658;2023-07-20T09:43:07;100180.00;;;25.02;50.23
54854;BME280;40747;49.480;8.658;2023-07-20T09:45:34;100192.91;;;24.60;51.77
54854;BME280;40747;49.480;8.658;2023-07-20T09:48:04;100180.63;;;23.97;52.06
54854;BME280;40747;49.480;8.658;2023-07-20T09:50:34;100185.38;;;24.34;52.83
54854;BME280;40747;49.480;8.658;2023-07-20T09:53:01;100185.16;;;24.86;50.88
54854;BME280;40747;49.480;8.658;2023-07-20T09:55:29;100175.59;;;24.52;51.25
54854;BME280;40747;49.480;8.658;2023-07-20T09:57:55;100169.81;;;24.57;51.12
54854;BME280;40747;49.480;8.658;2023-07-20T10:00:21;100177.56;;;23.80;51.65
54854;BME280;40747;49.480;8.658;2023-07-20T10:02:49;100172.22;;;23.49;52.46
54854;BME280;40747;49.480;8.658;2023-07-20T10:05:15;100175.66;;;23.61;52.59
54854;BME280;40747;49.480;8.658;2023-07-20T10:07:47;100179.25;;;23.40;52.93
54854;BME280;40747;49.480;8.658;2023-07-20T10:10:18;100176.16;;;23.86;52.44
54854;BME280;40747;49.480;8.658;2023-07-20T10:12:46;100163.13;;;24.91;51.20
54854;BME280;40747;49.480;8.658;2023-07-20T10:17:58;100154.50;;;26.28;47.95
54854;BME280;40747;49.480;8.658;2023-07-20T10:20:25;100161.97;;;26.16;47.75
54854;BME280;40747;49.480;8.658;2023-07-20T10:22:53;100163.91;;;26.06;48.44
54854;BME280;40747;49.480;8.658;2023-07-20T10:25:20;100161.53;;;26.21;48.51
54854;BME280;40747;49.480;8.658;2023-07-20T10:27:48;100152.72;;;26.55;47.58
54854;BME280;40747;49.480;8.658;2023-07-20T10:30:13;100148.47;;;26.52;47.05
54854;BME280;40747;49.480;8.658;2023-07-20T10:32:40;100143.72;;;26.46;46.70
54854;BME280;40747;49.480;8.658;2023-07-20T10:35:14;100137.66;;;26.70;46.01
54854;BME280;40747;49.480;8.658;2023-07-20T10:37:53;100135.91;;;27.31;46.92
54854;BME280;40747;49.480;8.658;2023-07-20T10:43:08;100141.13;;;27.25;45.08
54854;BME280;40747;49.480;8.658;2023-07-20T10:45:34;100136.31;;;27.71;44.43
54854;BME280;40747;49.480;8.658;2023-07-20T10:48:03;100129.78;;;27.47;44.16
54854;BME280;40747;49.480;8.658;2023-07-20T10:50:29;100132.50;;;27.56;43.72
54854;BME280;40747;49.480;8.658;2023-07-20T10:53:09;100115.72;;;27.44;44.20
54854;BME280;40747;49.480;8.658;2023-07-20T10:55:35;100124.81;;;27.77;44.38
54854;BME280;40747;49.480;8.658;2023-07-20T11:00:34;100114.97;;;28.36;42.79
54854;BME280;40747;49.480;8.658;2023-07-20T11:02:59;100115.66;;;28.54;42.00
54854;BME280;40747;49.480;8.658;2023-07-20T11:05:39;100097.84;;;28.10;43.35
54854;BME280;40747;49.480;8.658;2023-07-20T11:08:10;100094.31;;;28.84;42.85
54854;BME280;40747;49.480;8.658;2023-07-20T11:10:35;100100.38;;;29.11;41.20
54854;BME280;40747;49.480;8.658;2023-07-20T11:13:16;100098.56;;;28.87;41.57
54854;BME280;40747;49.480;8.658;2023-07-20T11:18:25;100097.47;;;29.21;41.42
54854;BME280;40747;49.480;8.658;2023-07-20T11:20:51;100088.38;;;29.53;40.53
54854;BME280;40747;49.480;8.658;2023-07-20T11:23:17;100087.94;;;29.73;40.14
54854;BME280;40747;49.480;8.658;2023-07-20T11:25:44;100084.81;;;29.84;40.16
54854;BME280;40747;49.480;8.658;2023-07-20T11:28:09;100093.88;;;30.08;41.31
54854;BME280;40747;49.480;8.658;2023-07-20T11:30:38;100085.66;;;30.16;40.34
54854;BME280;40747;49.480;8.658;2023-07-20T11:33:04;100083.28;;;30.36;39.91
54854;BME280;40747;49.480;8.658;2023-07-20T11:35:30;100082.88;;;30.24;39.27
54854;BME280;40747;49.480;8.658;2023-07-20T11:37:56;100083.97;;;29.84;39.97
54854;BME280;40747;49.480;8.658;2023-07-20T11:40:22;100080.88;;;29.95;40.56
54854;BME280;40747;49.480;8.658;2023-07-20T11:42:47;100073.81;;;30.32;41.50
54854;BME280;40747;49.480;8.658;2023-07-20T11:45:16;100074.00;;;30.54;39.93
54854;BME280;40747;49.480;8.658;2023-07-20T11:47:41;100077.16;;;30.96;38.55
54854;BME280;40747;49.480;8.658;2023-07-20T11:50:10;100071.75;;;31.26;37.59
54854;BME280;40747;49.480;8.658;2023-07-20T11:52:36;100063.84;;;30.01;38.36
54854;BME280;40747;49.480;8.658;2023-07-20T11:55:03;100065.13;;;29.82;39.46
54854;BME280;40747;49.480;8.658;2023-07-20T11:57:28;100052.53;;;29.66;39.47
54854;BME280;40747;49.480;8.658;2023-07-20T12:02:22;100052.53;;;29.66;38.40
54854;BME280;40747;49.480;8.658;2023-07-20T12:04:50;100064.00;;;30.08;39.45
54854;BME280;40747;49.480;8.658;2023-07-20T12:07:15;100051.97;;;30.64;37.71
54854;BME280;40747;49.480;8.658;2023-07-20T12:09:41;100044.63;;;30.87;36.49
54854;BME280;40747;49.480;8.658;2023-07-20T12:12:10;100045.47;;;31.03;36.94
54854;BME280;40747;49.480;8.658;2023-07-20T12:14:37;100035.13;;;30.98;37.13
54854;BME280;40747;49.480;8.658;2023-07-20T12:17:02;100029.13;;;31.03;35.93
54854;BME280;40747;49.480;8.658;2023-07-20T12:19:27;100036.25;;;30.89;37.53
54854;BME280;40747;49.480;8.658;2023-07-20T12:21:57;100025.19;;;30.91;38.27
54854;BME280;40747;49.480;8.658;2023-07-20T12:24:24;100029.44;;;30.78;37.36
54854;BME280;40747;49.480;8.658;2023-07-20T12:26:56;100021.91;;;30.04;37.59
54854;BME280;40747;49.480;8.658;2023-07-20T12:29:22;100041.25;;;29.78;38.07
54854;BME280;40747;49.480;8.658;2023-07-20T12:31:47;100031.75;;;30.05;37.68
54854;BME280;40747;49.480;8.658;2023-07-20T12:34:13;100033.66;;;29.73;37.28
54854;BME280;40747;49.480;8.658;2023-07-20T12:36:38;100029.22;;;29.72;37.84
54854;BME280;40747;49.480;8.658;2023-07-20T12:39:03;100007.88;;;29.46;37.50
54854;BME280;40747;49.480;8.658;2023-07-20T12:41:30;100025.28;;;29.51;37.83
54854;BME280;40747;49.480;8.658;2023-07-20T12:43:56;100022.44;;;29.05;37.78
54854;BME280;40747;49.480;8.658;2023-07-20T12:46:23;100019.50;;;28.67;37.68
54854;BME280;40747;49.480;8.658;2023-07-20T12:48:48;100016.00;;;29.06;37.64
54854;BME280;40747;49.480;8.658;2023-07-20T12:51:14;100014.28;;;29.05;37.68
54854;BME280;40747;49.480;8.658;2023-07-20T12:53:39;100009.84;;;28.72;39.32
54854;BME280;40747;49.480;8.658;2023-07-20T12:56:05;100002.91;;;28.45;38.87
54854;BME280;40747;49.480;8.658;2023-07-20T12:58:30;100011.06;;;28.20;38.66
54854;BME280;40747;49.480;8.658;2023-07-20T13:00:55;100007.25;;;27.80;38.79
54854;BME280;40747;49.480;8.658;2023-07-20T13:03:21;100004.44;;;28.06;39.45
54854;BME280;40747;49.480;8.658;2023-07-20T13:05:47;99996.31;;;28.15;38.61